ETAD

Spangdahlem Air Base Airport

Trier, Germany
TAF ETAD 221300Z 2213/2319 21003KT 8000 BR BKN010 QNH2972INS BECMG 2214/2215 23012KT 9999 NSW BKN008 OVC150 610159 QNH2960INS BECMG 2217/2218 23008KT 5000 -SHSN BKN005 OVC007 610109 QNH2950INS BECMG 2222/2223 17005KT 9999 NSW BKN007 OVC010 610109 QNH2942INS BECMG 2303/2304 16003KT 6000 -SHSN BKN005 OVC007 610109 QNH2940INS BECMG 2306/2307 14008KT 9999 NSW SCT007 BKN012 QNH2938INS TEMPO 2307/2311 5000 -SHSN BKN005 OVC008 TXM02/2214Z TNM05/2311Z
Issued Valid From Valid To
Jan-22 @ 13:00 UTC
(4 hours ago)
Jan-22 @ 13:00 UTC
(4 hours ago)
Jan-23 @ 19:00 UTC
(-1 days ago)
Expired Click to View Jan-22 @ 13:00 to Jan-22 @ 14:00
TAF ETAD 221300Z 2213/2319 21003KT 8000 BR BKN010 QNH2972INS
Wind Visibility Clouds Conditions Readings
210° at 3 knots 7,998 meters
  • Broken at 1,000' AGL
  • Mist
Altimeter 29.73" Hg
Pressure 1006.92 hPa
Becoming Jan-22 @ 14:00 to Jan-22 @ 17:00
BECMG 2214/2215 23012KT 9999 NSW BKN008 OVC150 610159 QNH2960INS
Wind Visibility Clouds Conditions Readings Icing
230° at 12 knots 10,000+ meters
  • Broken at 800' AGL
  • Overcast at 15,000' AGL
Altimeter 29.59" Hg
Pressure 1001.92 hPa
Light icing expected at 1,500' AGL extending to 10,500' AGL
Becoming Jan-22 @ 17:00 to Jan-22 @ 22:00
BECMG 2217/2218 23008KT 5000 -SHSN BKN005 OVC007 610109 QNH2950INS
Wind Visibility Clouds Conditions Readings Icing
230° at 8 knots 5,005 meters
  • Broken at 500' AGL
  • Overcast at 700' AGL
  • Light Snow
Altimeter 29.5" Hg
Pressure 998.92 hPa
Light icing expected at 1,000' AGL extending to 10,000' AGL
Becoming Jan-22 @ 22:00 to Jan-23 @ 03:00
BECMG 2222/2223 17005KT 9999 NSW BKN007 OVC010 610109 QNH2942INS
Wind Visibility Clouds Conditions Readings Icing
170° at 5 knots 10,000+ meters
  • Broken at 700' AGL
  • Overcast at 1,000' AGL
Altimeter 29.41" Hg
Pressure 995.92 hPa
Light icing expected at 1,000' AGL extending to 10,000' AGL
Becoming Jan-23 @ 03:00 to Jan-23 @ 06:00
BECMG 2303/2304 16003KT 6000 -SHSN BKN005 OVC007 610109 QNH2940INS
Wind Visibility Clouds Conditions Readings Icing
160° at 3 knots 6,003 meters
  • Broken at 500' AGL
  • Overcast at 700' AGL
  • Light Snow
Altimeter 29.41" Hg
Pressure 995.92 hPa
Light icing expected at 1,000' AGL extending to 10,000' AGL
Becoming Jan-23 @ 06:00 to Jan-23 @ 19:00
BECMG 2306/2307 14008KT 9999 NSW SCT007 BKN012 QNH2938INS
Wind Visibility Clouds Conditions Readings
140° at 8 knots 10,000+ meters
  • Scattered at 700' AGL
  • Broken at 1,200' AGL
Altimeter 29.38" Hg
Pressure 994.92 hPa
Temporary Jan-23 @ 07:00 to Jan-23 @ 11:00
TEMPO 2307/2311 5000 -SHSN BKN005 OVC008 TXM02/2214Z TNM05/2311Z
Visibility Clouds Conditions
5,005 meters
  • Broken at 500' AGL
  • Overcast at 800' AGL
  • Light Snow
TAF ETAD 221300Z 2213/2319 21003KT 8000 BR BKN010 QNH2972INS BECMG 2214/2215 23012KT 9999 NSW BKN008 OVC150 610159 QNH2960INS BECMG 2217/2218 23008KT 5000 -SHSN BKN005 OVC007 610109 QNH2950INS BECMG 2222/2223 17005KT 9999 NSW BKN007 OVC010 610109 QNH2942INS BECMG 2303/2304 16003KT 6000 -SHSN BKN005 OVC007 610109 QNH2940INS BECMG 2306/2307 14008KT 9999 NSW SCT007 BKN012 QNH2938INS TEMPO 2307/2311 5000 -SHSN BKN005 OVC008 TXM02/2214Z TNM05/2311Z
Issued Jan-22 @ 13:00 UTC
(4 hours ago)
Valid From Jan-22 @ 13:00 UTC
(4 hours ago)
Valid To Jan-23 @ 19:00 UTC
(-1 days ago)
Jan-22 @ 13:00 - Jan-22 @ 14:00
Wind Visibility
210° at 3 knots 7,998 meters
Clouds
  • Broken at 1,000' AGL
Conditions
  • Mist
Becoming Jan-22 @ 14:00 - Jan-22 @ 17:00
Wind Visibility
230° at 12 knots 10,000+ meters
Clouds
  • Broken at 800' AGL
  • Overcast at 15,000' AGL
Conditions
Becoming Jan-22 @ 17:00 - Jan-22 @ 22:00
Wind Visibility
230° at 8 knots 5,005 meters
Clouds
  • Broken at 500' AGL
  • Overcast at 700' AGL
Conditions
  • Light Snow
Becoming Jan-22 @ 22:00 - Jan-23 @ 03:00
Wind Visibility
170° at 5 knots 10,000+ meters
Clouds
  • Broken at 700' AGL
  • Overcast at 1,000' AGL
Conditions
Becoming Jan-23 @ 03:00 - Jan-23 @ 06:00
Wind Visibility
160° at 3 knots 6,003 meters
Clouds
  • Broken at 500' AGL
  • Overcast at 700' AGL
Conditions
  • Light Snow
Becoming Jan-23 @ 06:00 - Jan-23 @ 19:00
Wind Visibility
140° at 8 knots 10,000+ meters
Clouds
  • Scattered at 700' AGL
  • Broken at 1,200' AGL
Conditions
Temporary Jan-23 @ 07:00 - Jan-23 @ 11:00
Clouds
  • Broken at 500' AGL
  • Overcast at 800' AGL
Conditions
  • Light Snow